Time;durP1;ratioP1;P1;durP2;ratioP2;P2;SDS_P1;SDS_P2;PMS_P1;PMS_P2;Temp;Humidity;BMP_temperature;BMP_pressure;BME280_temperature;BME280_humidity;BME280_pressure;Samples;Min_cycle;Max_cycle;Signal;HPM_P1;HPM_P2
2022/07/16 00:03:20;;;;;;;9.82;3.55;;;13.20;99.90;13.10;98251.00;;;;5037971;28;84109;-61
2022/07/16 00:05:46;;;;;;;10.10;3.20;;;13.20;99.90;13.00;98259.00;;;;5041396;28;83408;-60
2022/07/16 00:08:12;;;;;;;4.82;3.13;;;13.10;99.90;12.90;98256.00;;;;5042124;27;82237;-62
2022/07/16 00:10:38;;;;;;;6.05;3.10;;;13.10;99.90;12.90;98248.00;;;;5041718;27;82395;-60
2022/07/16 00:13:04;;;;;;;6.63;3.22;;;13.10;99.90;12.90;98252.00;;;;5041153;28;83881;-63
2022/07/16 00:15:31;;;;;;;9.45;3.38;;;13.00;99.90;12.90;98248.00;;;;5041710;27;82214;-63
2022/07/16 00:20:46;;;;;;;7.00;3.05;;;13.10;99.90;12.90;98260.00;;;;5030867;27;83329;-62
2022/07/16 00:23:12;;;;;;;9.25;3.45;;;13.00;99.90;12.90;98264.00;;;;5040973;28;82687;-64
2022/07/16 00:25:39;;;;;;;6.25;3.03;;;13.00;99.90;12.90;98263.00;;;;5040027;28;83397;-62
2022/07/16 00:28:05;;;;;;;9.85;3.25;;;13.00;99.90;12.90;98260.00;;;;5040268;28;82925;-63
2022/07/16 00:30:31;;;;;;;10.85;3.65;;;13.00;99.90;12.80;98258.00;;;;5039758;28;82195;-63
2022/07/16 00:32:57;;;;;;;7.68;3.50;;;13.00;99.90;12.80;98258.00;;;;5040640;28;83884;-63
2022/07/16 00:35:24;;;;;;;10.57;3.40;;;12.90;99.90;12.70;98255.00;;;;5040480;27;83378;-60
2022/07/16 00:37:50;;;;;;;9.00;3.42;;;12.80;99.90;12.60;98257.00;;;;5041160;28;82630;-60
2022/07/16 00:40:16;;;;;;;6.78;2.92;;;12.70;99.90;12.60;98264.00;;;;5041126;27;83452;-60
2022/07/16 00:42:42;;;;;;;7.80;3.10;;;12.70;99.90;12.60;98261.00;;;;5045019;27;82645;-61
2022/07/16 00:45:08;;;;;;;5.22;2.70;;;12.70;99.90;12.50;98260.00;;;;5042646;27;82322;-59
2022/07/16 00:47:35;;;;;;;8.88;3.10;;;12.70;99.90;12.50;98260.00;;;;5044044;27;82264;-59
2022/07/16 00:50:01;;;;;;;8.23;2.92;;;12.70;99.90;12.50;98258.00;;;;5044013;28;82534;-63
2022/07/16 00:52:27;;;;;;;8.50;3.03;;;12.70;99.90;12.50;98259.00;;;;5043667;28;83453;-59
2022/07/16 00:54:53;;;;;;;9.68;3.05;;;12.60;99.90;12.50;98260.00;;;;5044814;28;83056;-59
2022/07/16 00:57:20;;;;;;;10.30;3.22;;;12.60;99.90;12.50;98260.00;;;;5043557;28;82699;-59
2022/07/16 00:59:46;;;;;;;8.13;3.30;;;12.60;99.90;12.50;98271.00;;;;5042629;28;82308;-63
2022/07/16 01:02:12;;;;;;;7.80;3.08;;;12.60;99.90;12.50;98265.00;;;;5043839;28;82521;-62
2022/07/16 01:04:38;;;;;;;8.02;3.53;;;12.60;99.90;12.50;98265.00;;;;5044942;28;82233;-62
2022/07/16 01:07:08;;;;;;;7.90;3.25;;;12.70;99.90;12.50;98265.00;;;;5041862;28;82985;-60
2022/07/16 01:09:35;;;;;;;9.25;3.20;;;12.70;99.90;12.50;98269.00;;;;5044912;28;82288;-61
2022/07/16 01:12:02;;;;;;;12.48;3.30;;;12.60;99.90;12.50;98267.00;;;;5044198;28;82608;-61
2022/07/16 01:14:28;;;;;;;11.70;3.75;;;12.60;99.90;12.50;98264.00;;;;5044560;27;82950;-60
2022/07/16 01:16:54;;;;;;;8.55;3.10;;;12.60;99.90;12.50;98275.00;;;;5040628;28;84158;-60
2022/07/16 01:19:20;;;;;;;6.82;2.97;;;12.60;99.90;12.50;98281.00;;;;5043163;28;82714;-60
2022/07/16 01:21:47;;;;;;;5.97;2.92;;;12.60;99.90;12.50;98288.00;;;;5043716;27;82594;-61
2022/07/16 01:24:13;;;;;;;7.50;2.80;;;12.60;99.90;12.50;98273.00;;;;5043308;27;83358;-61
2022/07/16 01:26:39;;;;;;;10.98;3.05;;;12.60;99.90;12.50;98274.00;;;;5043032;27;82244;-61
2022/07/16 01:29:05;;;;;;;8.63;2.90;;;12.60;99.90;12.60;98274.00;;;;5043008;28;83590;-61
2022/07/16 01:31:31;;;;;;;16.20;3.63;;;12.60;99.90;12.60;98275.00;;;;5043149;27;83531;-60
2022/07/16 01:36:56;;;;;;;9.60;2.85;;;12.70;99.90;12.60;98279.00;;;;5042878;28;82011;-60
2022/07/16 01:39:24;;;;;;;8.27;2.67;;;12.70;99.90;12.60;98282.00;;;;5043980;27;82224;-60
2022/07/16 01:41:56;;;;;;;7.57;2.65;;;12.70;99.90;12.60;98289.00;;;;5043763;28;83460;-61
2022/07/16 01:44:28;;;;;;;8.50;2.97;;;12.70;99.90;12.60;98284.00;;;;5043730;28;84184;-60
2022/07/16 01:46:57;;;;;;;10.73;2.90;;;12.70;99.90;12.70;98289.00;;;;5044128;27;82004;-61
2022/07/16 01:49:23;;;;;;;7.55;3.00;;;12.70;99.90;12.70;98288.00;;;;5042749;28;82834;-60
2022/07/16 01:51:50;;;;;;;8.88;2.40;;;12.70;99.90;12.70;98289.00;;;;5043586;27;83589;-61
2022/07/16 01:54:17;;;;;;;5.68;2.70;;;12.70;99.90;12.70;98300.00;;;;5043736;27;82802;-60
2022/07/16 01:56:43;;;;;;;6.40;2.97;;;12.80;99.90;12.70;98287.00;;;;5043563;27;82367;-60
2022/07/16 01:59:09;;;;;;;5.30;2.40;;;12.70;99.90;12.70;98300.00;;;;5043577;27;83460;-60
2022/07/16 02:01:35;;;;;;;6.60;2.40;;;12.80;99.90;12.70;98293.00;;;;5043604;28;82981;-60
2022/07/16 02:04:02;;;;;;;9.27;2.80;;;12.70;99.90;12.70;98300.00;;;;5043715;27;82777;-60
2022/07/16 02:06:28;;;;;;;6.05;2.67;;;12.70;99.90;12.70;98284.00;;;;5043349;28;82769;-61
2022/07/16 02:08:54;;;;;;;6.10;2.40;;;12.80;99.90;12.80;98288.00;;;;5042434;28;82778;-61
2022/07/16 02:11:20;;;;;;;9.52;3.08;;;12.80;99.90;13.10;98292.00;;;;5042533;28;84059;-61
2022/07/16 02:13:47;;;;;;;5.40;2.55;;;13.00;99.90;13.60;98295.00;;;;5043529;28;82739;-61
2022/07/16 02:16:13;;;;;;;5.45;2.50;;;13.50;99.90;14.30;98285.00;;;;5043634;27;82017;-61
2022/07/16 02:18:39;;;;;;;5.75;2.40;;;14.00;99.90;14.90;98296.00;;;;5043569;28;82515;-61
2022/07/16 02:21:06;;;;;;;5.38;2.55;;;14.50;99.90;15.60;98294.00;;;;5042991;27;83688;-60
2022/07/16 02:23:32;;;;;;;6.45;2.17;;;15.20;99.90;16.10;98284.00;;;;5042810;28;82289;-61
2022/07/16 02:25:58;;;;;;;5.35;2.45;;;15.70;99.90;16.70;98288.00;;;;5042400;27;82354;-60
2022/07/16 02:28:24;;;;;;;4.93;2.22;;;16.20;99.90;17.20;98296.00;;;;5042529;27;82289;-60
2022/07/16 02:30:50;;;;;;;6.50;2.20;;;16.80;99.90;17.70;98293.00;;;;5042038;27;84537;-61
2022/07/16 02:33:20;;;;;;;10.90;2.28;;;17.20;99.90;17.90;98295.00;;;;5043107;27;83709;-61
2022/07/16 02:35:47;;;;;;;7.88;2.25;;;17.40;99.90;18.50;98301.00;;;;5040881;28;82111;-61
2022/07/16 02:38:14;;;;;;;5.32;2.10;;;17.90;99.90;19.10;98299.00;;;;5042619;28;82325;-60
2022/07/16 02:40:41;;;;;;;6.55;2.28;;;18.60;99.90;19.30;98290.00;;;;5043246;27;82598;-61
2022/07/16 02:43:09;;;;;;;7.10;2.00;;;18.70;99.90;19.60;98295.00;;;;5040234;28;83348;-61
2022/07/16 02:45:39;;;;;;;8.23;2.17;;;18.90;99.90;19.90;98303.00;;;;5042315;28;82226;-61
2022/07/16 02:48:05;;;;;;;4.45;1.98;;;19.30;99.90;20.00;98305.00;;;;5042528;27;82228;-61
2022/07/16 02:50:32;;;;;;;5.57;2.00;;;19.40;99.90;20.10;98297.00;;;;5043293;27;82280;-61
2022/07/16 02:52:59;;;;;;;5.38;1.83;;;19.50;99.90;20.20;98307.00;;;;5042976;27;82501;-61
2022/07/16 02:55:26;;;;;;;3.70;1.70;;;19.60;99.90;20.20;98304.00;;;;5042392;27;82765;-61
2022/07/16 02:57:54;;;;;;;5.35;1.90;;;19.60;99.90;20.00;98314.00;;;;5042435;27;83642;-60
2022/07/16 03:00:20;;;;;;;4.32;1.90;;;19.40;99.90;20.10;98310.00;;;;5042470;28;82703;-61
2022/07/16 03:02:47;;;;;;;2.92;1.48;;;19.50;99.90;20.50;98307.00;;;;5042649;28;82499;-61
2022/07/16 03:05:13;;;;;;;7.00;2.17;;;19.90;99.90;20.70;98309.00;;;;5040981;27;82308;-63
2022/07/16 03:07:40;;;;;;;5.50;2.05;;;20.10;99.90;21.00;98311.00;;;;5041773;27;83555;-63
2022/07/16 03:10:08;;;;;;;5.50;1.90;;;20.40;99.90;21.40;98312.00;;;;5041956;28;83691;-63
2022/07/16 03:12:34;;;;;;;5.05;1.80;;;20.80;99.90;21.80;98320.00;;;;5041636;28;82241;-63
2022/07/16 03:15:04;;;;;;;10.75;1.95;;;21.10;99.90;22.20;98326.00;;;;5041625;28;82039;-62
2022/07/16 03:17:31;;;;;;;3.88;2.00;;;21.50;99.90;22.30;98325.00;;;;5020003;28;83469;-63
2022/07/16 03:19:57;;;;;;;6.45;1.95;;;21.70;99.90;22.20;98327.00;;;;5041934;28;83502;-62
2022/07/16 03:22:23;;;;;;;4.82;2.10;;;21.60;99.90;22.10;98335.00;;;;5041012;28;83652;-62
2022/07/16 03:24:49;;;;;;;4.93;2.13;;;21.50;99.90;22.00;98338.00;;;;5041591;28;82350;-62
2022/07/16 03:27:15;;;;;;;6.18;2.13;;;21.40;99.90;22.10;98335.00;;;;5040772;27;82321;-62
2022/07/16 03:29:41;;;;;;;4.60;1.90;;;21.50;99.90;22.10;98336.00;;;;5041482;27;82574;-62
2022/07/16 03:32:08;;;;;;;6.18;2.00;;;21.60;99.90;21.90;98343.00;;;;5039237;28;82831;-62
2022/07/16 03:34:35;;;;;;;5.22;1.50;;;21.40;99.90;21.60;98338.00;;;;5042142;28;82117;-62
2022/07/16 03:37:02;;;;;;;9.55;1.63;;;21.00;99.90;21.40;98356.00;;;;5040711;28;82413;-62
2022/07/16 03:39:28;;;;;;;5.40;1.77;;;20.80;99.90;21.60;98353.00;;;;5039684;28;82583;-62
2022/07/16 03:41:54;;;;;;;4.55;1.60;;;20.90;99.90;21.50;98347.00;;;;5042041;27;82416;-62
2022/07/16 03:44:20;;;;;;;5.93;2.10;;;20.90;99.90;21.70;98344.00;;;;5040894;27;83378;-62
2022/07/16 03:46:46;;;;;;;5.38;1.67;;;21.10;99.90;21.90;98356.00;;;;5041464;27;82458;-63
2022/07/16 03:49:12;;;;;;;4.00;1.70;;;21.20;99.90;21.60;98354.00;;;;5041034;28;82521;-63
2022/07/16 03:51:39;;;;;;;12.25;2.00;;;20.90;99.90;21.40;98359.00;;;;5040331;28;82472;-63
2022/07/16 03:54:05;;;;;;;3.92;1.90;;;20.70;99.90;21.00;98351.00;;;;5041681;27;82204;-63
2022/07/16 03:56:32;;;;;;;6.18;2.47;;;20.50;99.90;21.20;98353.00;;;;5041584;27;83397;-62
2022/07/16 03:58:59;;;;;;;3.47;1.92;;;20.70;99.90;21.20;98352.00;;;;5041436;28;82389;-62
2022/07/16 04:01:25;;;;;;;6.38;2.10;;;20.60;99.90;21.20;98349.00;;;;5042152;27;82092;-63
2022/07/16 04:03:52;;;;;;;4.85;1.52;;;20.60;99.90;21.30;98365.00;;;;5041808;27;82036;-62
2022/07/16 04:06:19;;;;;;;7.60;2.17;;;20.60;99.90;21.20;98366.00;;;;5040585;28;83408;-63
2022/07/16 04:08:46;;;;;;;9.20;2.00;;;20.60;99.90;20.90;98360.00;;;;5040032;28;83920;-63
2022/07/16 04:11:12;;;;;;;6.20;1.75;;;20.30;99.90;20.40;98359.00;;;;5041074;27;82994;-64
2022/07/16 04:13:40;;;;;;;4.07;1.90;;;20.00;99.90;20.70;98369.00;;;;5035540;28;83206;-63
2022/07/16 04:16:08;;;;;;;3.80;1.73;;;20.20;99.90;20.70;98376.00;;;;5043988;27;82468;-63
2022/07/16 04:18:35;;;;;;;5.20;1.63;;;20.20;99.90;21.00;98375.00;;;;5045162;28;82586;-63
2022/07/16 04:21:02;;;;;;;9.40;1.80;;;20.50;99.90;21.20;98369.00;;;;5045316;27;82281;-63
2022/07/16 04:23:28;;;;;;;3.78;1.80;;;20.50;99.90;21.20;98372.00;;;;5044150;27;82279;-63
2022/07/16 04:25:55;;;;;;;6.63;1.80;;;20.60;99.90;21.20;98364.00;;;;5044353;28;83034;-63
2022/07/16 04:28:21;;;;;;;2.83;1.52;;;20.60;99.90;21.30;98372.00;;;;5044039;27;83668;-63
2022/07/16 04:30:47;;;;;;;9.15;1.65;;;20.80;99.90;21.40;98375.00;;;;5043446;28;82875;-63
2022/07/16 04:33:13;;;;;;;7.00;1.80;;;20.80;99.90;21.90;98369.00;;;;5044548;28;83304;-63
2022/07/16 04:35:40;;;;;;;6.72;1.73;;;21.20;99.90;22.00;98366.00;;;;5044610;27;82404;-63
2022/07/16 04:38:06;;;;;;;9.75;1.90;;;21.40;99.90;22.10;98376.00;;;;5044527;27;82502;-63
2022/07/16 04:40:32;;;;;;;5.28;1.52;;;21.40;99.90;22.00;98376.00;;;;5044567;28;82581;-63
2022/07/16 04:42:58;;;;;;;9.00;1.40;;;21.40;99.90;21.90;98372.00;;;;5044992;27;82437;-63
2022/07/16 04:45:25;;;;;;;7.28;1.70;;;21.30;99.90;22.20;98389.00;;;;5044853;27;82084;-63
2022/07/16 04:47:51;;;;;;;6.45;1.60;;;21.50;99.90;22.10;98378.00;;;;5043972;28;83950;-63
2022/07/16 04:50:17;;;;;;;5.00;1.55;;;21.40;99.90;22.00;98385.00;;;;5044428;28;83968;-63
2022/07/16 04:52:44;;;;;;;6.28;1.50;;;21.40;99.90;22.10;98378.00;;;;5044217;27;82040;-63
2022/07/16 04:55:10;;;;;;;4.20;1.40;;;21.40;99.90;22.30;98376.00;;;;5043389;28;82136;-63
2022/07/16 04:57:37;;;;;;;3.97;1.30;;;21.60;99.90;22.90;98384.00;;;;5043549;28;83585;-63
2022/07/16 05:00:05;;;;;;;4.55;1.50;;;22.10;99.90;22.60;98381.00;;;;5043270;27;84168;-63
2022/07/16 05:05:19;;;;;;;5.22;1.35;;;21.60;99.90;22.20;98380.00;;;;5043586;28;82326;-63
2022/07/16 05:07:47;;;;;;;7.63;1.50;;;21.50;99.90;22.60;98379.00;;;;5043615;28;83651;-63
2022/07/16 05:10:14;;;;;;;6.55;1.30;;;21.80;99.90;22.10;98381.00;;;;5043342;28;82322;-63
2022/07/16 05:12:41;;;;;;;3.45;1.25;;;21.40;99.90;22.50;98393.00;;;;5043517;27;81968;-63
2022/07/16 05:15:08;;;;;;;8.18;1.70;;;21.60;99.90;22.60;98390.00;;;;5043205;28;83435;-63
2022/07/16 05:17:34;;;;;;;3.67;1.50;;;21.80;99.90;22.50;98386.00;;;;5044474;27;83051;-64
2022/07/16 05:20:01;;;;;;;4.78;2.03;;;21.70;99.90;23.30;98391.00;;;;5044301;27;82421;-63
2022/07/16 05:22:27;;;;;;;4.25;1.50;;;22.50;99.90;24.00;98394.00;;;;5043383;28;83233;-63
2022/07/16 05:24:53;;;;;;;4.22;1.55;;;23.10;99.90;22.90;98396.00;;;;5042618;27;82345;-62
2022/07/16 05:27:19;;;;;;;7.57;1.88;;;22.20;99.90;23.00;98389.00;;;;5041640;28;82564;-64
2022/07/16 05:29:46;;;;;;;6.50;3.13;;;22.30;99.90;23.90;98401.00;;;;5042456;28;82436;-63
2022/07/16 05:32:12;;;;;;;6.18;1.90;;;23.10;99.90;24.60;98397.00;;;;5043330;28;82116;-63
2022/07/16 05:34:38;;;;;;;3.95;1.17;;;23.80;99.90;24.50;98403.00;;;;5043654;27;83361;-63
2022/07/16 05:37:04;;;;;;;3.83;1.30;;;23.70;99.90;23.70;98398.00;;;;5042720;28;84033;-64
2022/07/16 05:39:30;;;;;;;4.28;1.30;;;23.00;99.90;23.90;98415.00;;;;5042568;28;82437;-64
2022/07/16 05:41:56;;;;;;;5.00;1.50;;;23.30;99.90;24.50;98409.00;;;;5043258;28;82041;-64
2022/07/16 05:44:23;;;;;;;4.65;1.40;;;23.80;99.90;24.70;98407.00;;;;5043298;27;82248;-63
2022/07/16 05:46:49;;;;;;;4.63;1.25;;;23.90;99.90;24.70;98413.00;;;;5042852;28;83385;-63
2022/07/16 05:49:15;;;;;;;5.75;1.40;;;24.00;99.90;24.70;98407.00;;;;5040960;28;84377;-63
2022/07/16 05:51:41;;;;;;;4.63;1.38;;;23.90;99.90;24.70;98413.00;;;;5043050;28;81994;-63
2022/07/16 05:54:07;;;;;;;2.28;0.90;;;23.90;99.90;23.70;98412.00;;;;5042076;28;82347;-63
2022/07/16 05:56:33;;;;;;;3.97;1.27;;;22.90;99.90;23.30;98411.00;;;;5042567;27;83150;-63
2022/07/16 05:59:02;;;;;;;3.38;1.08;;;22.70;99.90;23.60;98416.00;;;;5042952;27;82627;-63
2022/07/16 06:01:29;;;;;;;4.50;1.27;;;22.80;99.90;23.70;98420.00;;;;5042871;27;82177;-63
2022/07/16 06:14:43;;;;;;;4.88;1.10;;;;;23.70;98436.00;;;;5079755;27;82043;-59
2022/07/16 06:17:10;;;;;;;2.92;1.17;;;22.70;99.90;23.40;98420.00;;;;5076931;27;82032;-62
2022/07/16 06:19:37;;;;;;;5.50;1.27;;;22.00;99.90;22.60;98421.00;;;;5057313;27;81927;-59
2022/07/16 06:22:03;;;;;;;5.32;1.40;;;22.40;99.90;23.10;98422.00;;;;5053560;27;82322;-59
2022/07/16 06:24:29;;;;;;;4.43;1.23;;;22.60;99.90;23.50;98424.00;;;;5057370;27;81704;-59
2022/07/16 06:26:55;;;;;;;4.05;1.25;;;23.80;99.90;23.50;98432.00;;;;5056957;27;82086;-59
2022/07/16 06:29:21;;;;;;;4.55;1.10;;;;;23.20;98424.00;;;;5057594;27;82477;-59
2022/07/16 06:31:48;;;;;;;9.02;2.38;;;21.80;99.90;22.40;98425.00;;;;5057745;27;81881;-59
2022/07/16 06:34:14;;;;;;;2.20;0.88;;;21.30;99.90;21.70;98434.00;;;;5056835;27;82145;-61
2022/07/16 06:36:40;;;;;;;5.80;1.10;;;21.20;99.90;21.40;98427.00;;;;5055897;27;81764;-59
2022/07/16 06:39:08;;;;;;;5.03;1.42;;;;;21.30;98424.00;;;;5058841;27;82040;-59
2022/07/16 06:41:39;;;;;;;3.53;1.40;;;20.90;99.90;21.00;98413.00;;;;5058750;27;82295;-59
2022/07/16 06:44:09;;;;;;;3.92;1.33;;;20.50;99.90;20.60;98422.00;;;;5058533;27;82399;-61
2022/07/16 06:46:36;;;;;;;3.38;0.90;;;20.30;99.90;20.40;98409.00;;;;5055893;27;82455;-59
2022/07/16 06:49:03;;;;;;;4.53;1.10;;;20.20;99.90;20.30;98433.00;;;;5055865;27;82269;-60
2022/07/16 06:51:29;;;;;;;3.95;0.88;;;20.30;99.90;20.30;98423.00;;;;5058534;27;83475;-59
2022/07/16 06:53:55;;;;;;;2.47;1.10;;;20.40;99.90;20.40;98417.00;;;;5058453;27;83290;-59
2022/07/16 06:56:22;;;;;;;4.72;1.20;;;;;20.60;98426.00;;;;5058457;27;81654;-59
2022/07/16 06:58:48;;;;;;;3.05;0.80;;;;;20.70;98423.00;;;;5058429;27;81983;-59
2022/07/16 07:01:14;;;;;;;5.25;1.35;;;20.70;99.90;20.70;98425.00;;;;5058892;27;82367;-59
2022/07/16 07:03:41;;;;;;;3.70;1.00;;;20.70;99.90;20.80;98421.00;;;;5058321;27;82163;-59
2022/07/16 07:06:08;;;;;;;4.85;1.20;;;20.90;99.90;20.90;98423.00;;;;5057756;27;81785;-59
2022/07/16 07:08:35;;;;;;;3.35;1.23;;;21.10;99.90;21.10;98416.00;;;;5058225;27;81749;-59
2022/07/16 07:11:02;;;;;;;4.03;0.80;;;21.20;99.90;21.20;98425.00;;;;5058269;27;83496;-59
2022/07/16 07:13:30;;;;;;;1.50;0.80;;;21.00;99.90;21.40;98428.00;;;;5057075;27;82333;-59
2022/07/16 07:15:57;;;;;;;2.63;1.08;;;21.30;99.90;21.30;98436.00;;;;5041614;28;81501;-59
2022/07/16 07:18:25;;;;;;;2.95;1.00;;;21.30;99.90;21.40;98431.00;;;;5044028;27;81713;-59
2022/07/16 07:20:51;;;;;;;3.78;1.10;;;21.30;99.90;21.40;98437.00;;;;5044733;27;82283;-60
2022/07/16 07:23:17;;;;;;;2.47;1.02;;;21.20;99.90;21.30;98430.00;;;;5043200;28;82126;-59
2022/07/16 07:25:43;;;;;;;2.33;1.00;;;;;21.30;98437.00;;;;5039627;28;82909;-59
2022/07/16 07:28:10;;;;;;;2.22;0.90;;;21.30;99.90;21.40;98428.00;;;;5043499;28;81734;-59
2022/07/16 07:30:36;;;;;;;3.45;1.10;;;21.30;99.90;21.40;98428.00;;;;5044129;28;83883;-60
2022/07/16 07:33:02;;;;;;;4.45;1.30;;;21.50;99.90;21.50;98430.00;;;;5043662;28;81902;-60
2022/07/16 07:35:28;;;;;;;4.75;0.80;;;21.60;99.90;21.70;98427.00;;;;5042105;27;81697;-59
2022/07/16 07:37:54;;;;;;;6.32;1.20;;;21.60;99.90;21.80;98423.00;;;;5041987;28;81907;-59
2022/07/16 07:40:21;;;;;;;5.65;1.02;;;21.50;99.90;21.70;98426.00;;;;5059156;27;82215;-59
2022/07/16 07:42:47;;;;;;;3.65;1.00;;;21.40;99.90;21.50;98430.00;;;;5043525;27;81834;-60
2022/07/16 07:45:13;;;;;;;4.80;0.90;;;21.40;99.90;21.60;98427.00;;;;5043784;27;82010;-59
2022/07/16 07:47:39;;;;;;;2.90;1.13;;;;;21.60;98432.00;;;;5042787;27;82173;-58
2022/07/16 07:50:09;;;;;;;2.15;1.13;;;21.60;99.90;21.70;98438.00;;;;5043810;28;82269;-58
2022/07/16 07:52:35;;;;;;;2.92;0.90;;;21.80;99.90;21.90;98430.00;;;;5042453;28;81965;-59
2022/07/16 07:55:01;;;;;;;3.08;0.90;;;21.90;99.90;22.10;98437.00;;;;5043456;27;81592;-60
2022/07/16 07:57:28;;;;;;;4.78;1.00;;;22.10;99.90;22.30;98433.00;;;;5025035;28;82624;-59
2022/07/16 07:59:55;;;;;;;3.65;1.20;;;22.30;99.90;22.50;98434.00;;;;5041118;28;82454;-59
2022/07/16 08:02:21;;;;;;;4.30;1.05;;;22.30;99.90;22.50;98424.00;;;;5043146;28;82368;-61
2022/07/16 08:04:47;;;;;;;3.53;1.10;;;22.10;99.90;22.50;98436.00;;;;5024680;28;81676;-59
2022/07/16 08:07:13;;;;;;;3.70;1.00;;;22.20;99.90;22.50;98441.00;;;;5041809;28;81690;-59
2022/07/16 08:09:39;;;;;;;2.67;1.13;;;22.00;99.90;22.40;98434.00;;;;5043499;27;82225;-59
2022/07/16 08:12:06;;;;;;;3.00;1.17;;;;;22.20;98444.00;;;;5041419;28;83351;-59
2022/07/16 08:14:32;;;;;;;4.13;1.10;;;21.80;99.90;22.10;98444.00;;;;5043190;28;81824;-59
2022/07/16 08:16:59;;;;;;;5.88;1.35;;;21.40;99.90;21.80;98451.00;;;;5042915;28;81653;-59
2022/07/16 08:19:25;;;;;;;3.33;1.00;;;21.40;99.90;21.70;98456.00;;;;5043485;27;82257;-60
2022/07/16 08:21:51;;;;;;;2.92;1.13;;;21.40;99.90;21.60;98453.00;;;;5043258;28;82061;-59
2022/07/16 08:27:04;;;;;;;2.85;1.13;;;21.40;99.90;21.70;98450.00;;;;5041002;27;81636;-60
2022/07/16 08:29:30;;;;;;;2.67;1.25;;;21.70;99.90;22.00;98449.00;;;;5042865;27;81773;-60
2022/07/16 08:31:57;;;;;;;2.60;1.10;;;21.50;99.90;21.90;98451.00;;;;5042548;27;81769;-61
2022/07/16 08:34:24;;;;;;;5.57;1.42;;;21.60;99.90;21.90;98449.00;;;;5042094;28;81967;-60
2022/07/16 08:36:54;;;;;;;4.10;1.27;;;21.30;99.90;21.60;98458.00;;;;5042840;28;81956;-60
2022/07/16 08:39:20;;;;;;;3.22;1.00;;;21.00;99.90;21.40;98452.00;;;;5042396;27;82319;-60
2022/07/16 08:41:48;;;;;;;3.28;1.20;;;21.20;99.90;21.40;98444.00;;;;5041895;27;81850;-61
2022/07/16 08:44:15;;;;;;;6.25;1.08;;;21.40;99.90;21.60;98447.00;;;;5042175;27;81743;-60
2022/07/16 08:46:42;;;;;;;2.20;1.38;;;21.60;99.90;21.80;98450.00;;;;5040442;28;81850;-59
2022/07/16 08:49:08;;;;;;;2.97;0.95;;;21.80;99.90;21.90;98449.00;;;;5042532;27;82364;-60
2022/07/16 08:51:38;;;;;;;5.22;1.00;;;21.90;99.90;22.20;98451.00;;;;5043103;28;82090;-60
2022/07/16 08:54:13;;;;;;;3.15;1.10;;;22.00;99.90;22.20;98436.00;;;;5040259;28;82036;-59
2022/07/16 08:56:43;;;;;;;1.85;0.98;;;22.20;99.90;22.40;98444.00;;;;5040179;28;82023;-60
2022/07/16 08:59:09;;;;;;;2.28;1.05;;;22.00;99.90;22.30;98438.00;;;;5041113;28;81859;-59
2022/07/16 09:01:36;;;;;;;5.60;1.30;;;22.10;99.90;22.40;98453.00;;;;5039789;28;82832;-59
2022/07/16 09:04:03;;;;;;;1.98;1.33;;;22.20;99.90;22.50;98453.00;;;;5042016;27;82248;-59
2022/07/16 09:06:30;;;;;;;5.85;2.15;;;22.30;99.90;22.60;98453.00;;;;5041791;28;82995;-59
2022/07/16 09:08:57;;;;;;;6.28;1.33;;;22.20;99.90;22.50;98452.00;;;;5042366;27;82111;-60
2022/07/16 09:11:28;;;;;;;3.53;1.30;;;21.90;99.90;22.30;98458.00;;;;5041168;27;82449;-60
2022/07/16 09:14:20;;;;;;;2.77;0.80;;;21.50;99.90;21.80;98460.00;;;;5041700;28;82416;-60
2022/07/16 09:16:50;;;;;;;5.35;1.25;;;21.00;99.90;21.40;98459.00;;;;5069074;27;82137;-60
2022/07/16 09:19:27;;;;;;;2.20;0.70;;;20.90;99.90;21.10;98464.00;;;;5040978;28;82252;-60
2022/07/16 09:22:00;;;;;;;2.70;1.02;;;20.60;99.90;21.00;98462.00;;;;5042217;28;82072;-59
2022/07/16 09:24:38;;;;;;;3.72;1.42;;;20.90;99.90;21.10;98469.00;;;;5041683;27;81796;-60
2022/07/16 09:27:25;;;;;;;2.92;1.13;;;20.80;99.90;21.10;98478.00;;;;5040694;28;81841;-60
2022/07/16 09:29:56;;;;;;;5.80;1.02;;;20.80;99.90;21.10;98473.00;;;;5039139;28;82229;-60
2022/07/16 09:32:34;;;;;;;;;;;20.80;99.90;21.20;98462.00;;;;5040541;28;82702;-59
2022/07/16 09:35:13;;;;;;;5.95;1.23;;;21.30;99.90;21.50;98461.00;;;;5040904;28;82534;-60
2022/07/16 09:37:59;;;;;;;4.10;1.25;;;21.70;99.90;21.90;98465.00;;;;5039914;27;82290;-59
2022/07/16 09:40:57;;;;;;;3.28;1.25;;;21.90;99.90;22.30;98455.00;;;;5041327;28;82564;-60
2022/07/16 09:43:23;;;;;;;3.28;0.90;;;22.40;99.90;22.60;98445.00;;;;5039668;28;82098;-59
2022/07/16 09:45:59;;;;;;;3.00;1.00;;;22.70;99.90;23.00;98449.00;;;;5041949;28;82006;-60
2022/07/16 09:48:29;;;;;;;1.52;0.68;;;22.80;99.90;23.20;98459.00;;;;5039155;28;81784;-59
2022/07/16 09:51:33;;;;;;;2.38;0.80;;;23.00;99.90;23.30;98459.00;;;;5041601;27;82098;-59
2022/07/16 09:53:59;;;;;;;7.55;1.70;;;23.10;99.90;23.50;98449.00;;;;4980173;28;82871;-60
2022/07/16 09:56:27;;;;;;;3.38;1.08;;;23.10;99.90;23.50;98454.00;;;;5032884;27;81840;-59
2022/07/16 09:58:57;;;;;;;4.43;0.70;;;22.70;99.90;23.10;98458.00;;;;5041303;28;81896;-58
2022/07/16 10:01:23;;;;;;;1.70;0.95;;;22.80;99.90;23.10;98455.00;;;;5041049;28;83786;-62
2022/07/16 10:03:51;;;;;;;0.88;0.63;;;22.50;99.90;22.90;98459.00;;;;5040819;27;81707;-59
2022/07/16 10:06:19;;;;;;;3.58;1.10;;;22.60;99.90;23.00;98458.00;;;;5042017;27;81962;-60
2022/07/16 10:08:46;;;;;;;2.20;0.90;;;22.30;99.90;22.70;98456.00;;;;5040322;28;81971;-59
2022/07/16 10:11:13;;;;;;;3.03;1.02;;;22.10;99.90;22.50;98465.00;;;;5041038;28;81862;-60
2022/07/16 10:13:44;;;;;;;2.85;0.90;;;21.90;99.90;22.20;98466.00;;;;5040837;28;82802;-60
2022/07/16 10:16:11;;;;;;;1.55;0.80;;;21.70;99.90;22.10;98470.00;;;;5041847;27;82002;-60
2022/07/16 10:18:46;;;;;;;4.30;1.10;;;21.60;99.90;22.10;98463.00;;;;5038794;28;81839;-59
2022/07/16 10:21:23;;;;;;;2.40;1.13;;;21.50;99.90;22.00;98471.00;;;;5036138;27;82441;-59
2022/07/16 10:24:13;;;;;;;3.72;1.30;;;21.50;99.90;21.90;98477.00;;;;5039618;28;82613;-59
2022/07/16 10:26:40;;;;;;;2.83;1.00;;;21.30;99.90;21.70;98484.00;;;;5041361;27;84288;-59
2022/07/16 10:29:06;;;;;;;7.50;1.02;;;21.20;99.90;21.60;98474.00;;;;5039666;28;82313;-59
2022/07/16 10:34:39;;;;;;;5.82;0.90;;;21.80;99.90;21.90;98476.00;;;;5039014;28;84010;-61
2022/07/16 10:37:13;;;;;;;5.50;0.82;;;22.00;99.90;22.40;98467.00;;;;5039367;28;84320;-60
2022/07/16 10:39:59;;;;;;;4.28;0.70;;;22.30;99.90;22.70;98461.00;;;;5036998;28;82324;-60
2022/07/16 10:42:27;;;;;;;2.97;1.15;;;;;22.80;98459.00;;;;5039342;28;82557;-60
2022/07/16 10:44:53;;;;;;;2.95;1.00;;;22.60;99.90;22.90;98470.00;;;;5040255;27;82671;-60
2022/07/16 10:47:20;;;;;;;2.00;0.90;;;22.50;99.90;22.70;98468.00;;;;5040547;28;82764;-60
2022/07/16 10:49:46;;;;;;;2.90;0.68;;;22.30;99.90;22.70;98469.00;;;;5040879;27;82164;-61
2022/07/16 10:52:18;;;;;;;7.35;1.13;;;22.30;99.90;22.60;98474.00;;;;5044454;28;82810;-61
2022/07/16 10:54:50;;;;;;;4.88;1.05;;;22.20;99.90;22.50;98473.00;;;;5040399;28;83692;-64
2022/07/16 10:57:18;;;;;;;4.05;1.15;;;22.00;99.90;22.40;98471.00;;;;5043243;28;82527;-64
2022/07/16 10:59:47;;;;;;;3.60;0.80;;;21.90;99.90;22.20;98477.00;;;;5043356;28;82831;-64
2022/07/16 11:02:16;;;;;;;4.50;0.93;;;21.90;99.90;22.20;98478.00;;;;5043904;28;82311;-64
2022/07/16 11:04:45;;;;;;;2.17;0.90;;;22.00;99.90;22.30;98481.00;;;;5043737;27;82081;-64
2022/07/16 11:07:20;;;;;;;3.22;0.80;;;22.00;99.90;22.30;98475.00;;;;5042689;28;82426;-64
2022/07/16 11:09:53;;;;;;;6.45;1.38;;;22.00;99.90;22.40;98480.00;;;;5042592;28;82267;-64
2022/07/16 11:12:26;;;;;;;5.47;1.02;;;22.10;99.90;22.50;98483.00;;;;5042964;28;82400;-63
2022/07/16 11:14:56;;;;;;;3.47;0.70;;;22.10;99.90;22.60;98490.00;;;;5042466;28;83903;-64
2022/07/16 11:17:26;;;;;;;9.57;1.08;;;22.30;99.90;22.70;98479.00;;;;5040951;28;82470;-63
2022/07/16 11:19:56;;;;;;;2.60;0.73;;;22.40;99.90;22.90;98491.00;;;;5043778;28;81953;-64
2022/07/16 11:22:26;;;;;;;4.55;0.98;;;22.50;99.90;23.00;98486.00;;;;5042027;28;83529;-64
2022/07/16 11:25:00;;;;;;;3.20;0.93;;;22.70;99.90;23.20;98484.00;;;;5041216;28;86302;-63
2022/07/16 11:27:37;;;;;;;2.45;0.70;;;22.80;99.90;23.20;98497.00;;;;5040780;28;84370;-63